createdAt,value
2024-02-08T05:40:15.689Z,11.73
2024-02-08T05:43:28.989Z,12.55
2024-02-08T05:46:31.651Z,17.95
2024-02-08T05:49:34.326Z,17.98
2024-02-08T05:52:40.114Z,18.75
2024-02-08T05:55:49.237Z,22.20
2024-02-08T05:58:54.535Z,30.35
2024-02-08T06:05:10.961Z,21.60
2024-02-08T06:08:26.698Z,21.45
2024-02-08T06:14:32.215Z,14.30
2024-02-08T06:17:35.110Z,14.90
2024-02-08T06:20:42.755Z,13.95
2024-02-08T06:23:46.863Z,12.75
2024-02-08T06:26:57.452Z,12.45
2024-02-08T06:30:06.751Z,12.95
2024-02-08T06:33:11.876Z,11.27
2024-02-08T06:36:23.862Z,12.43
2024-02-08T06:39:31.087Z,11.43
2024-02-08T06:42:39.935Z,8.95
2024-02-08T06:45:48.166Z,8.88
2024-02-08T06:49:10.743Z,8.50
2024-02-08T06:52:32.216Z,8.77
2024-02-08T06:55:53.263Z,8.88
2024-02-08T06:59:15.774Z,9.40
2024-02-08T07:02:37.163Z,9.65
2024-02-08T07:05:58.478Z,11.12
2024-02-08T07:09:19.471Z,10.10
2024-02-08T07:12:41.237Z,13.13
2024-02-08T07:16:02.559Z,10.98
2024-02-08T07:19:23.838Z,12.48
2024-02-08T07:22:45.070Z,11.43
2024-02-08T07:26:06.049Z,12.23
2024-02-08T07:29:27.922Z,9.60
2024-02-08T07:32:48.940Z,10.82
2024-02-08T07:36:10.273Z,11.30
2024-02-08T07:39:31.291Z,10.38
2024-02-08T07:42:36.517Z,8.40
2024-02-08T07:45:39.108Z,7.32
2024-02-08T07:48:45.289Z,8.30
2024-02-08T07:51:52.026Z,7.68
2024-02-08T07:55:13.510Z,7.75
2024-02-08T07:58:20.154Z,7.32
2024-02-08T08:01:22.783Z,8.18
2024-02-08T08:04:53.141Z,7.70
2024-02-08T08:08:01.252Z,8.30
2024-02-08T08:11:08.304Z,7.50
2024-02-08T08:14:11.079Z,8.10
2024-02-08T08:17:16.516Z,8.70
2024-02-08T08:20:39.561Z,8.75
2024-02-08T08:24:01.474Z,8.05
2024-02-08T08:27:08.244Z,9.30
2024-02-08T08:30:12.884Z,8.23
2024-02-08T08:33:35.530Z,9.23
2024-02-08T08:36:43.277Z,8.43
2024-02-08T08:40:09.094Z,9.90
2024-02-08T08:43:12.002Z,12.20
2024-02-08T08:46:14.631Z,10.15
2024-02-08T08:49:22.517Z,10.02
2024-02-08T08:52:25.634Z,8.10
2024-02-08T08:55:28.401Z,7.97
2024-02-08T08:58:40.456Z,7.70
2024-02-08T09:01:44.227Z,7.57
2024-02-08T09:04:49.354Z,7.62
2024-02-08T09:07:56.297Z,11.30
2024-02-08T09:11:00.288Z,7.45
2024-02-08T09:14:11.880Z,7.30
2024-02-08T09:17:24.640Z,7.40
2024-02-08T09:20:30.505Z,7.05
2024-02-08T09:23:38.202Z,7.43
2024-02-08T09:26:50.214Z,7.25
2024-02-08T09:30:00.576Z,6.90
2024-02-08T09:33:05.102Z,7.43
2024-02-08T09:36:08.085Z,7.22
2024-02-08T09:39:16.450Z,7.65
2024-02-08T09:42:19.689Z,7.60
2024-02-08T09:45:35.516Z,11.15
2024-02-08T09:48:44.692Z,6.55
2024-02-08T09:51:55.465Z,12.88
2024-02-08T09:55:09.801Z,7.43
2024-02-08T09:58:14.341Z,6.95
2024-02-08T10:01:32.401Z,7.22
2024-02-08T10:04:35.104Z,3.95
2024-02-08T10:07:37.828Z,4.50
2024-02-08T10:11:00.331Z,4.90
2024-02-08T10:14:07.720Z,4.60
2024-02-08T10:17:17.082Z,5.03
2024-02-08T10:20:22.612Z,6.10
2024-02-08T10:26:47.554Z,6.50
2024-02-08T10:30:06.593Z,5.37
2024-02-08T10:33:11.987Z,8.52
2024-02-08T10:36:21.576Z,8.52
2024-02-08T10:39:26.310Z,3.60
2024-02-08T10:42:39.825Z,3.92
2024-02-08T10:45:45.742Z,7.90
2024-02-08T10:48:51.062Z,8.10
2024-02-08T10:52:02.305Z,12.23
2024-02-08T10:55:20.093Z,4.15
2024-02-08T10:58:28.334Z,3.90
2024-02-08T11:01:34.731Z,3.33
2024-02-08T11:04:43.479Z,5.10
2024-02-08T11:07:47.581Z,4.40
2024-02-08T11:10:51.248Z,3.62
2024-02-08T11:14:01.238Z,4.00
2024-02-08T11:17:06.437Z,3.83
2024-02-08T11:20:18.553Z,3.37
2024-02-08T11:23:25.193Z,3.55
2024-02-08T11:26:28.307Z,4.20
2024-02-08T11:29:31.128Z,3.90
2024-02-08T11:32:35.830Z,3.62
2024-02-08T11:35:47.550Z,3.17
2024-02-08T11:39:00.218Z,3.75
2024-02-08T11:42:18.304Z,3.87
2024-02-08T11:45:23.957Z,3.67
2024-02-08T11:48:30.545Z,2.80
2024-02-08T11:51:35.306Z,3.10
2024-02-08T11:54:41.187Z,3.62
2024-02-08T11:57:44.321Z,4.50
2024-02-08T12:00:50.719Z,3.55
2024-02-08T12:03:54.858Z,4.20
2024-02-08T12:07:04.358Z,5.28
2024-02-08T12:10:11.037Z,4.03
2024-02-08T12:13:16.019Z,4.03
2024-02-08T12:16:19.160Z,4.15
2024-02-08T12:19:22.615Z,4.53
2024-02-08T12:22:28.120Z,4.45
2024-02-08T12:25:32.234Z,3.95
2024-02-08T12:28:39.645Z,3.75
2024-02-08T12:31:45.153Z,4.43
2024-02-08T12:34:50.233Z,4.35
2024-02-08T12:37:59.910Z,5.15
2024-02-08T12:41:07.849Z,5.40
2024-02-08T12:44:11.918Z,9.05
2024-02-08T12:47:18.824Z,5.87
2024-02-08T12:50:27.002Z,4.62
2024-02-08T12:53:35.971Z,4.07
2024-02-08T12:56:38.814Z,7.53
2024-02-08T12:59:43.393Z,7.30
2024-02-08T13:02:47.491Z,5.00
2024-02-08T13:05:51.644Z,4.00
2024-02-08T13:09:18.347Z,4.37
2024-02-08T13:12:24.189Z,5.03
2024-02-08T13:15:33.009Z,4.60
2024-02-08T13:18:40.612Z,3.22
2024-02-08T13:21:46.144Z,4.12
2024-02-08T13:24:53.202Z,2.80
2024-02-08T13:27:59.464Z,4.35
2024-02-08T13:31:10.009Z,2.85
2024-02-08T13:34:15.044Z,2.78
2024-02-08T13:37:23.755Z,3.00
2024-02-08T13:40:27.065Z,3.40
2024-02-08T13:43:32.308Z,3.20
2024-02-08T13:49:41.050Z,4.87
2024-02-08T13:52:43.743Z,4.18
2024-02-08T13:55:53.953Z,4.53
2024-02-08T13:59:01.772Z,4.32
2024-02-08T14:27:21.377Z,6.32
2024-02-08T14:30:23.771Z,6.10
2024-02-08T14:33:26.258Z,7.12
2024-02-08T14:36:29.496Z,6.47
2024-02-08T14:39:36.104Z,6.87
2024-02-08T14:42:40.686Z,6.65
2024-02-08T14:45:45.119Z,7.43
2024-02-08T14:48:52.907Z,7.43
2024-02-08T14:52:04.343Z,6.87
2024-02-08T14:55:11.757Z,7.72
2024-02-08T14:58:50.220Z,8.13
2024-02-08T15:02:01.260Z,9.50
2024-02-08T15:05:03.947Z,8.30
2024-02-08T15:08:37.597Z,7.35
2024-02-08T15:11:51.371Z,8.77
2024-02-08T15:14:56.551Z,9.00
2024-02-08T15:21:25.766Z,8.68
2024-02-08T15:24:29.265Z,9.18
2024-02-08T15:27:51.538Z,8.60
2024-02-08T15:31:13.133Z,7.82
2024-02-08T15:34:18.868Z,8.30
2024-02-08T15:37:30.103Z,9.95
2024-02-08T15:40:32.910Z,8.43
2024-02-08T15:43:37.859Z,8.13
2024-02-08T15:46:42.832Z,9.43
2024-02-08T15:49:46.102Z,9.05
2024-02-08T15:52:54.623Z,10.00
2024-02-08T15:56:00.128Z,12.68
2024-02-08T15:59:07.096Z,15.43
2024-02-08T16:02:17.924Z,14.60
2024-02-08T16:05:24.305Z,16.00
2024-02-08T16:08:37.154Z,16.80
2024-02-08T16:11:44.279Z,16.95
2024-02-08T16:15:06.860Z,19.10
2024-02-08T16:18:24.096Z,21.98
2024-02-08T16:21:31.413Z,22.10
2024-02-08T16:24:34.030Z,19.48
2024-02-08T16:27:49.473Z,15.55
